Time;durP1;ratioP1;P1;durP2;ratioP2;P2;SDS_P1;SDS_P2;PMS_P1;PMS_P2;Temp;Humidity;BMP_temperature;BMP_pressure;BME280_temperature;BME280_humidity;BME280_pressure;Samples;Min_cycle;Max_cycle;Signal;HPM_P1;HPM_P2
2023/07/13 00:00:18;;;;;;;7.93;2.80;;;;;;;17.23;65.02;101321.94;5073409;28;20031;-56
2023/07/13 00:02:44;;;;;;;7.22;2.70;;;;;;;17.12;65.01;101323.78;5073135;28;20059;-58
2023/07/13 00:05:09;;;;;;;7.05;2.58;;;;;;;17.00;65.56;101327.44;5055220;28;20505;-58
2023/07/13 00:07:36;;;;;;;7.88;2.45;;;;;;;16.89;65.68;101334.69;5073110;28;20108;-57
2023/07/13 00:10:03;;;;;;;12.55;2.80;;;;;;;16.84;66.31;101334.72;5073496;28;20116;-57
2023/07/13 00:12:31;;;;;;;7.13;2.53;;;;;;;16.82;66.25;101330.25;5073152;28;20386;-58
2023/07/13 00:15:01;;;;;;;7.13;2.42;;;;;;;16.88;66.09;101323.13;5073038;28;20397;-58
2023/07/13 00:17:28;;;;;;;8.15;2.33;;;;;;;16.94;66.16;101330.19;5072422;28;20082;-58
2023/07/13 00:19:56;;;;;;;9.73;2.88;;;;;;;16.90;66.20;101323.09;5072806;28;20064;-57
2023/07/13 00:22:21;;;;;;;5.45;2.20;;;;;;;16.89;66.33;101327.53;5072971;28;20028;-57
2023/07/13 00:24:47;;;;;;;6.47;2.10;;;;;;;16.96;66.29;101329.28;5073098;28;20036;-57
2023/07/13 00:27:13;;;;;;;6.55;2.38;;;;;;;16.93;66.63;101331.97;5073169;28;20028;-58
2023/07/13 00:29:39;;;;;;;10.85;2.28;;;;;;;16.87;66.91;101328.44;5072766;28;20043;-56
2023/07/13 00:32:06;;;;;;;8.02;2.47;;;;;;;16.83;66.97;101319.59;5073138;28;20021;-57
2023/07/13 00:34:32;;;;;;;7.35;2.70;;;;;;;16.77;67.18;101323.19;5072901;28;20086;-57
2023/07/13 00:36:58;;;;;;;9.63;2.50;;;;;;;16.75;67.46;101333.00;5072862;28;20020;-58
2023/07/13 00:39:24;;;;;;;7.63;2.45;;;;;;;16.69;67.61;101332.97;5072874;28;20032;-59
2023/07/13 00:41:50;;;;;;;7.57;2.30;;;;;;;16.68;67.95;101335.66;5072663;28;20111;-58
2023/07/13 00:44:17;;;;;;;8.65;2.40;;;;;;;16.71;68.28;101333.88;5072859;28;20103;-58
2023/07/13 00:46:43;;;;;;;8.80;2.58;;;;;;;16.65;68.08;101330.34;5072799;28;20021;-58
2023/07/13 00:49:13;;;;;;;7.75;2.55;;;;;;;16.63;68.45;101337.50;5072612;28;20047;-57
2023/07/13 00:51:49;;;;;;;7.72;2.58;;;;;;;16.60;68.57;101343.72;5072782;28;20028;-57
2023/07/13 00:54:18;;;;;;;7.28;2.47;;;;;;;16.50;69.22;101342.00;5072973;28;20024;-57
2023/07/13 00:56:46;;;;;;;7.85;2.60;;;;;;;16.43;69.58;101338.47;5072674;28;20021;-58
2023/07/13 00:59:15;;;;;;;6.30;2.60;;;;;;;16.44;69.66;101340.25;5054440;28;20078;-58
2023/07/13 01:01:40;;;;;;;7.97;2.72;;;;;;;16.50;69.63;101344.69;5055334;28;20033;-57
2023/07/13 01:04:07;;;;;;;6.82;2.40;;;;;;;16.44;69.99;101334.03;5072499;28;20069;-58
2023/07/13 01:06:36;;;;;;;8.40;2.83;;;;;;;16.37;70.36;101335.84;5072750;28;20037;-59
2023/07/13 01:09:02;;;;;;;9.05;2.65;;;;;;;16.33;70.70;101334.09;5054934;28;20091;-57
2023/07/13 01:11:28;;;;;;;7.45;2.60;;;;;;;16.26;70.87;101335.00;5072524;28;20032;-56
2023/07/13 01:13:54;;;;;;;11.45;2.75;;;;;;;16.22;71.40;101330.59;5072449;28;20032;-58
2023/07/13 01:16:28;;;;;;;8.77;2.65;;;;;;;16.16;71.47;101333.28;5072721;28;20020;-57
2023/07/13 01:18:57;;;;;;;8.18;2.63;;;;;;;16.03;72.44;101336.00;5072249;28;20044;-58
2023/07/13 01:21:23;;;;;;;8.77;2.88;;;;;;;16.03;72.45;101348.44;5072656;28;20032;-57
2023/07/13 01:23:48;;;;;;;9.27;2.60;;;;;;;16.05;72.78;101343.09;5072376;28;20382;-58
2023/07/13 01:26:14;;;;;;;8.38;2.75;;;;;;;16.12;72.41;101342.19;5072378;28;20053;-57
2023/07/13 01:28:39;;;;;;;5.85;2.25;;;;;;;16.19;72.07;101343.94;5073667;28;20509;-57
2023/07/13 01:31:05;;;;;;;14.88;2.97;;;;;;;16.18;72.52;101350.16;5075900;28;20070;-57
2023/07/13 01:33:30;;;;;;;8.98;2.60;;;;;;;16.21;72.33;101339.47;5074953;28;20021;-57
2023/07/13 01:35:59;;;;;;;9.13;2.55;;;;;;;16.16;72.41;101336.84;5075980;28;20112;-57
2023/07/13 01:38:25;;;;;;;4.93;2.25;;;;;;;16.23;72.56;101349.25;5075900;28;20032;-58
2023/07/13 01:40:52;;;;;;;9.88;2.70;;;;;;;16.20;72.66;101343.06;5075884;28;20142;-58
2023/07/13 01:43:18;;;;;;;7.20;2.35;;;;;;;16.26;72.52;101343.91;5075769;28;20024;-58
2023/07/13 01:45:44;;;;;;;8.35;2.58;;;;;;;16.26;72.25;101348.34;5075710;28;20553;-57
2023/07/13 01:48:10;;;;;;;12.98;2.80;;;;;;;16.26;72.52;101359.91;5058236;28;20067;-57
2023/07/13 01:50:36;;;;;;;10.55;2.60;;;;;;;16.25;72.36;101357.25;5076005;28;20466;-57
2023/07/13 01:53:02;;;;;;;8.48;2.63;;;;;;;16.27;72.71;101356.34;5075720;28;20029;-58
2023/07/13 01:55:29;;;;;;;8.80;2.70;;;;;;;16.25;72.98;101351.91;5075623;28;20077;-57
2023/07/13 01:57:55;;;;;;;10.95;2.80;;;;;;;16.27;72.40;101355.44;5075588;28;20103;-57
2023/07/13 02:00:20;;;;;;;8.85;2.60;;;;;;;16.17;72.95;101348.38;5075462;28;20071;-57
2023/07/13 02:02:46;;;;;;;7.78;2.50;;;;;;;16.13;73.13;101366.16;5057672;28;20056;-57
2023/07/13 02:05:12;;;;;;;9.75;2.53;;;;;;;16.12;73.11;101368.84;5075609;28;20029;-58
2023/07/13 02:07:38;;;;;;;6.25;2.53;;;;;;;16.06;73.20;101352.88;5080219;28;20027;-57
2023/07/13 02:10:05;;;;;;;8.25;2.60;;;;;;;15.99;73.77;101363.56;5095611;28;20381;-57
2023/07/13 02:12:30;;;;;;;7.75;2.80;;;;;;;15.84;74.59;101366.25;5095892;28;20036;-57
2023/07/13 02:14:55;;;;;;;9.63;2.53;;;;;;;15.81;74.91;101370.75;5095784;28;20020;-56
2023/07/13 02:17:21;;;;;;;7.63;2.53;;;;;;;15.76;75.42;101365.41;5095723;28;20541;-58
2023/07/13 02:19:47;;;;;;;7.47;2.60;;;;;;;15.77;75.37;101369.84;5095085;28;20044;-57
2023/07/13 02:22:12;;;;;;;8.85;2.78;;;;;;;15.73;75.40;101363.63;5095368;28;20050;-57
2023/07/13 02:24:38;;;;;;;7.97;2.72;;;;;;;15.72;75.71;101364.53;5095379;28;20385;-58
2023/07/13 02:27:04;;;;;;;7.03;2.78;;;;;;;15.68;75.83;101367.22;5095500;28;20073;-56
2023/07/13 02:29:29;;;;;;;8.90;2.85;;;;;;;15.66;76.14;101366.31;5095379;28;20397;-57
2023/07/13 02:31:55;;;;;;;9.60;2.90;;;;;;;15.70;76.01;101368.06;5095376;28;20020;-57
2023/07/13 02:34:20;;;;;;;7.90;2.63;;;;;;;15.67;76.07;101361.00;5095062;28;20492;-56
2023/07/13 02:36:45;;;;;;;8.40;2.72;;;;;;;15.63;76.52;101361.84;5095281;28;20032;-56
2023/07/13 02:39:12;;;;;;;12.77;2.78;;;;;;;15.59;77.18;101364.50;5095314;28;20048;-56
2023/07/13 02:41:38;;;;;;;8.15;2.85;;;;;;;15.52;77.44;101367.19;5094399;28;20036;-58
2023/07/13 02:44:03;;;;;;;7.05;2.90;;;;;;;15.46;77.54;101368.94;5095103;28;20036;-57
2023/07/13 02:46:36;;;;;;;8.77;2.38;;;;;;;15.49;77.42;101368.97;5094875;28;20477;-57
2023/07/13 02:49:02;;;;;;;6.72;2.53;;;;;;;15.51;77.54;101367.19;5094794;28;20028;-56
2023/07/13 02:51:28;;;;;;;8.27;2.72;;;;;;;15.53;77.06;101371.63;5094838;28;20031;-58
2023/07/13 02:53:54;;;;;;;6.35;2.60;;;;;;;15.53;77.43;101371.63;5094771;28;20088;-58
2023/07/13 02:56:25;;;;;;;8.43;2.80;;;;;;;15.49;77.54;101368.97;5094756;28;20021;-56
2023/07/13 02:58:51;;;;;;;9.98;2.72;;;;;;;15.51;77.84;101359.22;5094796;28;20494;-55
2023/07/13 03:01:20;;;;;;;11.20;3.17;;;;;;;15.41;78.55;101368.06;5094434;28;20556;-58
2023/07/13 03:03:46;;;;;;;8.20;3.22;;;;;;;15.38;78.94;101363.66;5094511;28;20064;-57
2023/07/13 03:06:12;;;;;;;8.95;2.97;;;;;;;15.40;78.47;101364.53;5094747;28;20052;-56
2023/07/13 03:08:37;;;;;;;11.25;2.92;;;;;;;15.41;78.63;101368.06;5094368;28;20099;-57
2023/07/13 03:11:06;;;;;;;10.13;2.95;;;;;;;15.53;78.52;101370.72;5094619;28;20481;-58
2023/07/13 03:13:32;;;;;;;9.15;3.10;;;;;;;15.48;78.31;101377.84;5094420;28;20024;-57
2023/07/13 03:15:57;;;;;;;7.30;2.80;;;;;;;15.40;78.66;101380.50;5094352;28;20028;-57
2023/07/13 03:18:23;;;;;;;12.57;2.92;;;;;;;15.28;79.16;101368.06;5086192;28;20153;-56
2023/07/13 03:20:52;;;;;;;8.88;2.78;;;;;;;15.36;79.29;101369.88;5073699;28;20498;-57
2023/07/13 03:23:18;;;;;;;9.20;2.72;;;;;;;15.36;79.53;101372.53;5073842;28;20109;-57
2023/07/13 03:25:44;;;;;;;9.30;2.80;;;;;;;15.35;79.64;101368.09;5073803;28;20035;-58
2023/07/13 03:28:11;;;;;;;9.02;3.05;;;;;;;15.38;79.63;101370.78;5073864;28;20060;-57
2023/07/13 03:30:36;;;;;;;10.23;3.20;;;;;;;15.37;79.72;101368.97;5073697;28;20029;-57
2023/07/13 03:33:01;;;;;;;9.23;3.00;;;;;;;15.30;80.10;101368.09;5073772;28;20032;-57
2023/07/13 03:35:27;;;;;;;11.98;3.22;;;;;;;15.27;80.44;101376.06;5055316;28;20033;-56
2023/07/13 03:37:52;;;;;;;9.95;2.83;;;;;;;15.25;80.82;101381.41;5073357;28;20449;-58
2023/07/13 03:40:18;;;;;;;8.38;3.40;;;;;;;15.23;80.79;101385.84;5072899;28;20024;-57
2023/07/13 03:42:43;;;;;;;9.05;3.10;;;;;;;15.23;81.09;101385.84;5054844;28;20038;-58
2023/07/13 03:45:09;;;;;;;12.52;3.00;;;;;;;15.24;81.24;101381.41;5073162;28;20475;-58
2023/07/13 03:47:34;;;;;;;12.85;3.60;;;;;;;15.23;81.05;101384.94;5072906;28;20470;-58
2023/07/13 03:49:59;;;;;;;7.82;3.17;;;;;;;15.19;81.47;101388.50;5072813;28;20062;-57
2023/07/13 03:52:25;;;;;;;11.32;2.97;;;;;;;15.15;81.88;101389.38;5071996;28;20040;-57
2023/07/13 03:54:50;;;;;;;11.45;3.30;;;;;;;15.13;82.19;101393.84;5072675;28;20023;-58
2023/07/13 03:57:15;;;;;;;10.55;3.30;;;;;;;15.09;82.54;101392.06;5072590;28;20024;-57
2023/07/13 03:59:41;;;;;;;12.20;3.55;;;;;;;15.05;83.30;101400.91;5072487;28;20108;-58
2023/07/13 04:02:06;;;;;;;11.75;3.58;;;;;;;15.00;84.00;101403.56;5054507;28;20031;-57
2023/07/13 04:04:32;;;;;;;11.77;3.30;;;;;;;14.98;84.10;101402.66;5072396;28;20505;-57
2023/07/13 04:06:58;;;;;;;10.20;3.15;;;;;;;14.98;84.68;101403.56;5072485;28;20065;-57
2023/07/13 04:09:24;;;;;;;9.30;3.20;;;;;;;15.08;83.84;101411.56;5072394;28;20085;-57
2023/07/13 04:11:50;;;;;;;9.98;3.03;;;;;;;15.13;84.02;101421.34;5072448;28;20066;-57
2023/07/13 04:14:15;;;;;;;10.00;3.30;;;;;;;15.14;84.26;101416.91;5072332;28;20426;-58
2023/07/13 04:16:41;;;;;;;13.27;3.72;;;;;;;15.08;85.13;101419.56;5072572;28;20027;-58
2023/07/13 04:19:09;;;;;;;12.88;3.85;;;;;;;15.10;85.14;101415.13;5072272;28;20351;-58
2023/07/13 04:21:35;;;;;;;14.13;3.53;;;;;;;15.09;85.15;101416.91;5054255;28;20024;-58
2023/07/13 04:24:01;;;;;;;12.57;3.78;;;;;;;15.13;85.45;101424.00;5072258;28;20032;-58
2023/07/13 04:26:26;;;;;;;10.00;3.58;;;;;;;15.21;85.51;101426.69;5072454;28;20029;-57
2023/07/13 04:28:52;;;;;;;15.45;3.60;;;;;;;15.22;86.19;101423.13;5072213;28;20033;-56
2023/07/13 04:31:17;;;;;;;11.50;3.83;;;;;;;15.24;86.28;101426.66;5072117;28;20044;-56
2023/07/13 04:33:43;;;;;;;11.93;3.85;;;;;;;15.27;85.52;101422.22;5072033;28;20466;-58
2023/07/13 04:36:09;;;;;;;11.77;4.07;;;;;;;15.31;85.91;101430.22;5072084;28;20050;-57
2023/07/13 04:38:36;;;;;;;14.43;4.40;;;;;;;15.32;86.39;101416.91;5072200;28;20478;-58
2023/07/13 04:41:04;;;;;;;16.60;5.05;;;;;;;15.35;86.95;101426.69;5072042;28;20058;-57
2023/07/13 04:43:31;;;;;;;16.80;5.38;;;;;;;15.41;86.57;101432.00;5072000;28;20615;-58
2023/07/13 04:45:57;;;;;;;18.98;5.88;;;;;;;15.49;86.61;101432.88;5072059;28;20063;-57
2023/07/13 04:48:23;;;;;;;20.92;6.20;;;;;;;15.55;86.85;101440.91;5071978;28;20454;-57
2023/07/13 04:50:54;;;;;;;19.65;6.60;;;;;;;15.61;87.07;101443.53;5071833;28;20115;-58
2023/07/13 04:53:20;;;;;;;18.60;6.85;;;;;;;15.66;86.82;101439.13;5072216;28;20111;-57
2023/07/13 04:55:46;;;;;;;24.63;6.80;;;;;;;15.74;86.67;101445.34;5071975;28;20447;-57
2023/07/13 04:58:12;;;;;;;19.90;6.90;;;;;;;15.73;87.59;101440.03;5071947;28;20089;-57
2023/07/13 05:00:39;;;;;;;21.00;6.88;;;;;;;15.82;87.06;101442.69;5071973;28;20385;-58
2023/07/13 05:03:05;;;;;;;18.98;6.75;;;;;;;15.87;87.04;101446.22;5072367;28;20377;-56
2023/07/13 05:05:31;;;;;;;21.13;7.50;;;;;;;15.87;87.53;101440.00;5075967;28;20032;-57
2023/07/13 05:07:56;;;;;;;24.75;7.97;;;;;;;15.92;87.38;101449.75;5075708;28;20025;-58
2023/07/13 05:10:21;;;;;;;21.95;8.55;;;;;;;16.00;87.19;101455.06;5075834;28;20024;-57
2023/07/13 05:12:47;;;;;;;22.25;8.48;;;;;;;16.03;87.17;101458.63;5075883;28;20028;-57
2023/07/13 05:15:12;;;;;;;24.10;8.48;;;;;;;16.05;87.95;101453.28;5075723;28;20028;-58
2023/07/13 05:17:41;;;;;;;23.77;8.05;;;;;;;16.11;87.41;101452.41;5075708;28;20436;-58
2023/07/13 05:20:08;;;;;;;22.58;8.77;;;;;;;16.18;87.80;101459.47;5075567;28;20040;-57
2023/07/13 05:22:35;;;;;;;27.88;8.80;;;;;;;16.22;86.93;101463.91;5075676;28;20044;-57
2023/07/13 05:25:02;;;;;;;22.60;9.10;;;;;;;16.26;87.30;101469.22;5075451;28;20031;-58
2023/07/13 05:27:27;;;;;;;26.77;9.68;;;;;;;16.34;87.31;101468.34;5075375;28;20032;-57
2023/07/13 05:29:53;;;;;;;25.92;8.82;;;;;;;16.37;86.87;101474.56;5075195;28;20075;-56
2023/07/13 05:32:18;;;;;;;24.10;8.52;;;;;;;16.41;86.02;101465.66;5075382;28;20394;-56
2023/07/13 05:34:44;;;;;;;23.38;9.10;;;;;;;16.48;86.28;101472.72;5075421;28;20032;-57
2023/07/13 05:37:10;;;;;;;20.83;9.48;;;;;;;16.55;86.17;101475.38;5075347;28;20033;-57
2023/07/13 05:39:35;;;;;;;28.83;10.00;;;;;;;16.52;86.93;101477.16;5075237;28;20021;-57
2023/07/13 05:42:02;;;;;;;24.00;9.93;;;;;;;16.57;86.73;101479.81;5075365;28;20077;-57
2023/07/13 05:44:27;;;;;;;27.60;9.13;;;;;;;16.62;86.04;101482.47;5075126;28;20033;-57
2023/07/13 05:46:52;;;;;;;26.48;9.98;;;;;;;16.65;85.94;101472.66;5075368;28;20024;-57
2023/07/13 05:49:18;;;;;;;20.92;9.85;;;;;;;16.62;86.38;101482.47;5075165;28;20024;-58
2023/07/13 05:51:43;;;;;;;21.73;9.57;;;;;;;16.68;85.98;101485.09;5074922;28;20032;-56
2023/07/13 05:54:09;;;;;;;27.35;9.73;;;;;;;16.73;86.11;101486.00;5075035;28;20120;-57
2023/07/13 05:56:34;;;;;;;21.40;9.43;;;;;;;16.80;85.79;101489.53;5056932;28;20402;-57
2023/07/13 05:59:00;;;;;;;31.77;10.60;;;;;;;16.83;86.12;101484.16;5074877;28;20029;-57
2023/07/13 06:01:26;;;;;;;29.38;10.15;;;;;;;16.88;85.74;101490.41;5074427;28;20031;-58
2023/07/13 06:03:51;;;;;;;29.20;10.68;;;;;;;16.89;86.23;101492.16;5074861;28;20047;-56
2023/07/13 06:06:17;;;;;;;29.85;9.77;;;;;;;16.90;85.66;101500.16;5075056;28;20024;-57
2023/07/13 06:08:42;;;;;;;28.88;10.20;;;;;;;16.88;85.81;101507.31;5075036;28;20024;-57
2023/07/13 06:11:15;;;;;;;29.35;10.80;;;;;;;16.82;86.71;101503.75;5074947;28;20075;-57
2023/07/13 06:13:40;;;;;;;30.60;11.05;;;;;;;16.83;86.84;101503.78;5074966;28;20108;-57
2023/07/13 06:16:06;;;;;;;27.60;10.73;;;;;;;16.91;86.74;101498.38;5073883;28;20124;-58
2023/07/13 06:18:33;;;;;;;28.38;10.80;;;;;;;16.98;86.03;101498.34;5074528;28;20461;-58
2023/07/13 06:20:59;;;;;;;21.88;9.45;;;;;;;17.10;85.54;101507.19;5074190;28;20486;-56
2023/07/13 06:23:25;;;;;;;26.25;11.30;;;;;;;17.13;85.51;101507.16;5074342;28;20043;-56
2023/07/13 06:25:50;;;;;;;27.33;10.57;;;;;;;17.19;84.81;101504.47;5056372;28;20034;-58
2023/07/13 06:28:16;;;;;;;22.42;9.52;;;;;;;17.25;84.30;101505.28;5074312;28;20025;-56
2023/07/13 06:30:41;;;;;;;28.75;11.00;;;;;;;17.32;83.82;101510.63;5074127;28;20109;-57
2023/07/13 06:33:07;;;;;;;24.23;10.25;;;;;;;17.36;84.41;101510.59;5074087;28;20420;-58
2023/07/13 06:35:32;;;;;;;22.52;10.00;;;;;;;17.42;83.44;101513.22;5074370;28;20028;-58
2023/07/13 06:37:58;;;;;;;27.90;10.20;;;;;;;17.48;83.48;101514.97;5074256;28;20025;-57
2023/07/13 06:40:23;;;;;;;25.75;10.95;;;;;;;17.49;82.80;101517.63;5074322;28;20107;-58
2023/07/13 06:42:48;;;;;;;21.52;9.98;;;;;;;17.50;82.75;101521.19;5074113;28;20462;-58
2023/07/13 06:45:14;;;;;;;26.65;10.90;;;;;;;17.49;82.95;101522.97;5073943;28;20024;-58
2023/07/13 06:47:39;;;;;;;27.80;10.43;;;;;;;17.48;82.94;101536.34;5074026;28;20074;-58
2023/07/13 06:50:05;;;;;;;25.13;10.65;;;;;;;17.43;82.80;101531.03;5073510;28;20107;-57
2023/07/13 06:52:31;;;;;;;26.08;10.27;;;;;;;17.41;82.57;101526.59;5073961;28;20143;-57
2023/07/13 06:54:56;;;;;;;22.80;10.40;;;;;;;17.44;82.85;101527.47;5073993;28;20026;-57
2023/07/13 06:57:21;;;;;;;26.23;10.60;;;;;;;17.49;83.23;101530.97;5073308;28;20149;-56
2023/07/13 06:59:47;;;;;;;21.85;9.93;;;;;;;17.59;82.92;101538.94;5073559;28;20462;-57
2023/07/13 07:02:12;;;;;;;25.25;10.68;;;;;;;17.65;82.93;101530.88;5073575;28;20029;-58
2023/07/13 07:04:39;;;;;;;23.63;10.45;;;;;;;17.69;82.28;101536.19;5073519;28;20037;-57
2023/07/13 07:07:04;;;;;;;23.75;9.57;;;;;;;17.72;82.17;101533.47;5073593;28;20029;-57
2023/07/13 07:09:31;;;;;;;24.23;9.57;;;;;;;17.77;81.72;101537.06;5073687;28;20020;-57
2023/07/13 07:11:56;;;;;;;26.48;9.82;;;;;;;17.73;82.16;101532.59;5073603;28;20029;-56
2023/07/13 07:14:22;;;;;;;29.88;9.88;;;;;;;17.75;81.93;101538.84;5073317;28;20492;-57
2023/07/13 07:16:47;;;;;;;20.98;9.70;;;;;;;17.78;81.42;101537.94;5072705;28;20028;-58
2023/07/13 07:19:13;;;;;;;26.23;10.10;;;;;;;17.75;81.69;101538.84;5073062;28;20040;-58
2023/07/13 07:21:39;;;;;;;21.98;9.00;;;;;;;17.84;81.13;101548.56;5073179;28;20074;-57
2023/07/13 07:24:05;;;;;;;24.35;9.82;;;;;;;17.91;81.33;101541.41;5073369;28;20028;-58
2023/07/13 07:26:31;;;;;;;21.67;9.48;;;;;;;17.92;81.08;101545.84;5073256;28;20024;-58
2023/07/13 07:28:56;;;;;;;26.35;9.60;;;;;;;18.01;80.97;101553.78;5073148;28;20480;-57
2023/07/13 07:31:21;;;;;;;21.58;9.75;;;;;;;18.08;80.95;101547.50;5072971;28;20055;-58
2023/07/13 07:33:49;;;;;;;21.48;9.43;;;;;;;18.16;79.76;101555.44;5073110;28;20112;-58
2023/07/13 07:36:16;;;;;;;19.88;8.45;;;;;;;18.34;79.23;101551.72;5054957;28;20489;-58
2023/07/13 07:38:41;;;;;;;16.48;8.38;;;;;;;18.63;78.53;101551.38;5073002;28;20036;-58
2023/07/13 07:41:07;;;;;;;21.65;8.40;;;;;;;18.95;77.61;101551.03;5072912;28;20025;-57
2023/07/13 07:43:32;;;;;;;20.08;7.95;;;;;;;19.12;76.70;101545.47;5072655;28;20028;-57
2023/07/13 07:45:58;;;;;;;18.65;7.68;;;;;;;19.17;74.75;101552.53;5072662;28;20028;-57
2023/07/13 07:48:23;;;;;;;22.48;8.32;;;;;;;19.20;74.98;101552.50;5072841;28;20025;-57
2023/07/13 07:50:49;;;;;;;19.30;7.90;;;;;;;19.31;75.03;101557.69;5072744;28;20386;-57
2023/07/13 07:53:14;;;;;;;20.48;8.00;;;;;;;19.38;75.29;101559.38;5072704;28;20036;-57
2023/07/13 07:55:39;;;;;;;22.25;8.57;;;;;;;19.32;74.93;101554.13;5072582;28;20531;-57
2023/07/13 07:58:05;;;;;;;22.45;7.72;;;;;;;19.42;75.25;101550.38;5072652;28;20020;-57
2023/07/13 08:00:32;;;;;;;18.10;7.45;;;;;;;19.51;73.95;101554.72;5072233;28;20033;-57
2023/07/13 08:02:58;;;;;;;19.38;7.15;;;;;;;19.59;72.93;101560.88;5072480;28;20025;-58
2023/07/13 08:05:24;;;;;;;16.30;7.28;;;;;;;19.64;72.27;101553.66;5072362;28;20036;-58
2023/07/13 08:07:49;;;;;;;17.67;7.07;;;;;;;19.89;72.50;101555.97;5072612;28;20029;-58
2023/07/13 08:10:15;;;;;;;17.95;6.97;;;;;;;20.21;70.59;101559.00;5072333;28;20028;-58
2023/07/13 08:12:41;;;;;;;14.77;6.00;;;;;;;20.45;68.82;101551.41;5072489;28;20032;-56
2023/07/13 08:15:11;;;;;;;19.27;6.60;;;;;;;20.74;68.06;101561.63;5072392;28;20032;-58
2023/07/13 08:17:36;;;;;;;16.42;6.35;;;;;;;20.88;65.68;101566.69;5072675;28;20431;-58
2023/07/13 08:20:02;;;;;;;13.73;5.18;;;;;;;21.06;64.71;101560.06;5072047;28;20502;-57
2023/07/13 08:22:27;;;;;;;16.20;5.15;;;;;;;21.27;64.48;101557.78;5054241;28;20034;-58
2023/07/13 08:24:56;;;;;;;16.13;4.80;;;;;;;21.68;63.26;101560.50;5072371;28;20067;-58
2023/07/13 08:27:25;;;;;;;10.65;4.82;;;;;;;21.79;61.58;101563.78;5054660;28;20024;-58
2023/07/13 08:29:51;;;;;;;16.08;4.80;;;;;;;21.84;61.31;101559.19;5072066;28;20033;-57
2023/07/13 08:32:17;;;;;;;17.17;5.40;;;;;;;22.19;60.99;101550.25;5072183;28;20050;-58
2023/07/13 08:34:43;;;;;;;15.43;5.00;;;;;;;22.10;59.43;101549.56;5072067;28;20025;-58
2023/07/13 08:37:09;;;;;;;15.57;4.78;;;;;;;22.05;60.26;101554.19;5072319;28;20036;-58
2023/07/13 08:39:34;;;;;;;13.13;4.55;;;;;;;22.09;60.25;101551.38;5071910;28;20438;-57
2023/07/13 08:42:26;;;;;;;13.75;4.90;;;;;;;22.15;60.58;101553.06;5072035;28;20035;-58
2023/07/13 08:44:54;;;;;;;10.55;4.78;;;;;;;21.89;60.64;101551.88;5025341;28;20054;-58
2023/07/13 08:47:22;;;;;;;12.43;5.30;;;;;;;21.69;61.19;101559.56;5072028;28;20025;-58
2023/07/13 08:49:48;;;;;;;14.98;5.18;;;;;;;21.97;60.12;101555.28;5072330;28;20107;-57
2023/07/13 08:52:32;;;;;;;14.60;4.97;;;;;;;22.17;58.73;101554.78;5072202;28;20059;-57
2023/07/13 08:55:05;;;;;;;10.02;4.43;;;;;;;22.40;58.50;101548.81;5072548;28;20095;-58
2023/07/13 08:57:33;;;;;;;10.48;4.28;;;;;;;22.56;57.19;101553.75;5072238;28;20036;-58
2023/07/13 08:59:59;;;;;;;12.65;4.60;;;;;;;22.66;56.50;101555.28;5071824;28;20025;-58
2023/07/13 09:02:34;;;;;;;10.50;4.93;;;;;;;22.53;56.57;101560.13;5071891;28;20020;-56
2023/07/13 09:05:04;;;;;;;10.48;4.57;;;;;;;22.66;55.83;101555.28;5071826;28;20032;-58
2023/07/13 09:07:45;;;;;;;10.18;4.55;;;;;;;22.81;55.28;101556.66;5072261;28;20039;-57
2023/07/13 09:10:30;;;;;;;13.98;4.93;;;;;;;22.71;54.34;101556.91;5072232;28;20427;-57
2023/07/13 09:13:39;;;;;;;12.02;4.55;;;;;;;22.70;56.17;101548.88;5071790;28;20024;-58
2023/07/13 09:16:05;;;;;;;9.55;5.07;;;;;;;22.46;55.25;101561.22;4993220;28;20449;-57
2023/07/13 09:18:37;;;;;;;13.18;5.10;;;;;;;22.57;56.01;101556.44;5071957;28;20037;-57
2023/07/13 09:21:10;;;;;;;13.20;4.93;;;;;;;22.72;56.09;101547.91;5071568;28;20059;-57
2023/07/13 09:23:36;;;;;;;12.73;4.80;;;;;;;22.93;55.37;101548.25;5071671;28;20389;-58
2023/07/13 09:26:17;;;;;;;14.20;4.90;;;;;;;23.03;55.38;101548.84;5071631;28;20029;-58
2023/07/13 09:28:45;;;;;;;15.10;5.20;;;;;;;22.94;54.90;101558.09;5053853;28;20103;-56
2023/07/13 09:31:16;;;;;;;11.52;4.57;;;;;;;23.12;54.48;101552.13;5071473;28;20431;-59
2023/07/13 09:33:41;;;;;;;14.35;4.38;;;;;;;23.20;53.38;101552.78;5071704;28;20036;-58
2023/07/13 09:36:21;;;;;;;11.68;4.65;;;;;;;23.31;53.98;101557.88;5053735;28;20028;-56
2023/07/13 09:38:49;;;;;;;11.55;4.20;;;;;;;23.27;54.05;101555.31;5071994;28;20032;-58
2023/07/13 09:41:46;;;;;;;11.27;4.40;;;;;;;23.23;53.91;101555.41;5071812;28;20021;-59
2023/07/13 09:44:15;;;;;;;11.35;4.20;;;;;;;23.01;54.43;101556.09;5071603;28;20032;-57
2023/07/13 09:46:52;;;;;;;10.07;4.45;;;;;;;22.71;54.20;101548.81;5071762;28;20150;-58
2023/07/13 09:49:18;;;;;;;10.73;4.32;;;;;;;22.71;54.43;101554.22;5071535;28;20127;-57
2023/07/13 09:51:46;;;;;;;13.40;4.78;;;;;;;22.60;54.10;101547.34;5074049;28;20032;-57
2023/07/13 09:54:18;;;;;;;11.43;4.22;;;;;;;22.71;54.33;101556.91;5075036;28;20029;-57
2023/07/13 09:56:44;;;;;;;10.55;4.22;;;;;;;23.09;52.68;101554.94;5074755;28;20470;-57
2023/07/13 09:59:23;;;;;;;9.90;3.95;;;;;;;23.29;52.70;101558.84;5075163;28;20024;-57
2023/07/13 10:01:49;;;;;;;10.77;4.15;;;;;;;23.30;51.58;101558.81;5075008;28;20063;-57
2023/07/13 10:04:18;;;;;;;10.32;4.10;;;;;;;23.40;52.40;101554.88;5074666;28;20473;-58
2023/07/13 10:06:45;;;;;;;8.00;3.97;;;;;;;23.40;52.31;101554.88;5074649;28;20032;-57
2023/07/13 10:09:16;;;;;;;9.63;3.55;;;;;;;23.40;51.06;101557.59;5074632;28;20031;-58
2023/07/13 10:11:41;;;;;;;14.32;4.13;;;;;;;23.13;52.37;101551.22;5074862;28;20033;-58
2023/07/13 10:14:17;;;;;;;8.13;3.50;;;;;;;23.13;51.91;101556.63;5074604;28;20501;-57
2023/07/13 10:16:45;;;;;;;7.45;3.65;;;;;;;23.46;51.12;101546.59;5074732;28;20020;-58
2023/07/13 10:19:21;;;;;;;15.55;4.00;;;;;;;23.55;51.00;101549.94;5074333;28;20053;-58
2023/07/13 10:21:59;;;;;;;13.38;3.40;;;;;;;23.74;51.31;101567.34;5074882;28;20029;-57
2023/07/13 10:24:27;;;;;;;7.35;3.45;;;;;;;23.89;49.73;101560.53;5074268;28;20522;-58
2023/07/13 10:27:10;;;;;;;10.50;3.25;;;;;;;24.06;48.45;101557.28;5074591;28;20442;-58
2023/07/13 10:29:40;;;;;;;7.82;3.50;;;;;;;24.11;47.94;101558.00;5074154;28;20025;-60
2023/07/13 10:32:11;;;;;;;7.15;3.00;;;;;;;24.05;48.65;101555.53;5074530;28;20060;-58
2023/07/13 10:34:37;;;;;;;8.82;3.30;;;;;;;23.93;48.22;101556.81;5074159;28;20028;-58
2023/07/13 10:37:05;;;;;;;8.45;3.10;;;;;;;23.78;49.08;101552.81;5074213;28;20024;-57
2023/07/13 10:39:30;;;;;;;8.82;2.80;;;;;;;23.68;49.21;101549.53;5074098;28;20024;-57
2023/07/13 10:42:00;;;;;;;9.55;3.13;;;;;;;23.59;50.10;101557.88;5074333;28;20067;-57
2023/07/13 10:44:28;;;;;;;8.80;3.22;;;;;;;23.42;50.69;101549.44;5074352;28;20062;-58
2023/07/13 10:47:06;;;;;;;7.45;2.97;;;;;;;23.20;50.93;101568.09;5073872;28;20482;-57
2023/07/13 10:49:33;;;;;;;16.52;4.03;;;;;;;22.99;56.87;101586.66;5056869;28;20041;-59
2023/07/13 10:51:59;;;;;;;10.10;3.40;;;;;;;22.59;59.30;101586.88;5056315;28;20055;-59
2023/07/13 10:54:37;;;;;;;11.20;3.80;;;;;;;22.07;60.85;101592.72;5073758;28;20028;-60
2023/07/13 10:57:09;;;;;;;9.85;4.30;;;;;;;21.77;62.85;101586.28;5074065;28;20036;-59
2023/07/13 10:59:34;;;;;;;9.57;4.90;;;;;;;21.57;64.35;101590.31;5073894;28;20086;-60
2023/07/13 11:02:04;;;;;;;9.00;4.63;;;;;;;21.38;65.48;101587.16;5073066;28;20470;-60
2023/07/13 11:04:42;;;;;;;10.30;4.80;;;;;;;21.29;65.43;101595.41;5073683;28;20039;-60
2023/07/13 11:07:19;;;;;;;12.45;4.68;;;;;;;21.52;65.77;101584.16;5056280;28;20032;-60
2023/07/13 11:09:50;;;;;;;11.60;4.80;;;;;;;21.79;67.05;101592.50;5073806;28;20041;-60
2023/07/13 11:12:26;;;;;;;11.48;4.90;;;;;;;21.91;64.86;101586.81;5073621;28;20027;-60
2023/07/13 11:14:54;;;;;;;8.07;4.38;;;;;;;22.17;65.43;101588.91;5087686;28;20036;-60
2023/07/13 11:17:38;;;;;;;8.73;4.70;;;;;;;;;;5075401;28;20023;-59
2023/07/13 11:20:12;;;;;;;10.88;5.00;;;;;;;22.96;66.75;101593.97;5093335;28;20148;-59